BGJN

Ilulissat Airport

Ilulissat, Greenland
METAR BGJN 200450Z AUTO 00000KT 9999NDV FEW110/// BKN170/// 06/M02 Q1003
Observed Flight Rules
Jun-20 @ 04:50 UTC (52 minutes ago)
Clouds
  • Few at 11,000' AGL
  • Broken at 17,000' AGL
Temperatures Readings
Current 6°C / 43°F
Dewpoint -2°C / 28°F
Humidity 57%
Altimeter 29.62" Hg
Pressure 1003 hPa
Elevation 25
METAR BGJN 200450Z AUTO 00000KT 9999NDV FEW110/// BKN170/// 06/M02 Q1003
Observed Flight Rules
Jun-20 @ 04:50 UTC
(52 minutes ago)
Clouds
  • Few at 11,000' AGL
  • Broken at 17,000' AGL
Temperature Dewpoint
6°C / 43°F -2°C / 28°F
Humidity Altimeter Pressure
57% 29.62" Hg 1003 hPa